KISM 030356Z AUTO 08006KT 10SM SCT040 BKN048 20/16 A3033 RMK AO2 SLP270 T02000161 PNO $

KISSIMMEE GATEWAY AIRPORT

ISM Airport Diagram
Airport Information
Airport Runways
  • Runway 15/33

  • Runway 06/26

FBOs
  • Signature Flight Support

  • Odyssey Aviation

Fuel
  • Self-Serve (100LL)

  • Full Service (100LL, Jet-A)

AIRCRAFT AT KISM

N46299

Kissimmee (KISM)

  • Cessna 172M

  • IFR Equipped

  • Garmin GNX 375

  • ADS-B In/Out

$155/hr

Overnight Minimums

2 hours per day